Terminal Aerodrome Forecast
Issued by NWS

Home | Current Version | Previous Version | Text Only | Print | Product List | Glossary On
Versions: 1 2 3 4 5 6 7 8 9 10 11 12 13 14 15
000
FTUS44 KBMX 191000 AAA
TAFTOI
TAF AMD
KTOI 191017Z 1910/2006 01004KT P6SM SCT030 OVC200
     FM191500 04005KT P6SM VCSH BKN035 OVC050
     FM192000 02007KT 4SM RA BKN035 OVC050=

USA.gov is the U.S. government's official web portal to all federal, state and local government web resources and services.